createdAt,value
2019-04-22T00:00:16.236Z,24.00
2019-04-22T00:01:19.490Z,25.50
2019-04-22T00:02:13.806Z,23.50
2019-04-22T00:03:15.246Z,26.00
2019-04-22T00:04:17.773Z,21.70
2019-04-22T00:05:25.923Z,23.50
2019-04-22T00:06:30.882Z,23.20
2019-04-22T00:07:36.198Z,21.40
2019-04-22T00:08:36.193Z,21.50
2019-04-22T00:09:38.881Z,19.40
2019-04-22T00:10:43.720Z,22.30
2019-04-22T00:11:35.461Z,21.40
2019-04-22T00:12:43.942Z,21.00
2019-04-22T00:13:40.673Z,21.50
2019-04-22T00:14:35.270Z,20.20
2019-04-22T00:15:32.600Z,20.30
2019-04-22T00:16:48.754Z,21.80
2019-04-22T00:18:54.851Z,21.60
2019-04-22T00:19:43.800Z,20.40
2019-04-22T00:20:35.496Z,20.40
2019-04-22T00:21:40.381Z,22.70
2019-04-22T00:22:38.047Z,20.70
2019-04-22T00:23:39.215Z,24.00
2019-04-22T00:24:40.215Z,23.40
2019-04-22T00:25:42.047Z,20.80
2019-04-22T00:27:40.570Z,22.90
2019-04-22T00:28:44.067Z,21.50
2019-04-22T00:29:59.357Z,22.70
2019-04-22T00:30:35.565Z,22.90
2019-04-22T00:31:32.740Z,22.60
2019-04-22T00:32:36.872Z,21.70
2019-04-22T00:33:26.781Z,19.60
2019-04-22T00:34:35.942Z,20.40
2019-04-22T00:35:35.486Z,18.90
2019-04-22T00:36:36.478Z,19.70
2019-04-22T00:37:43.775Z,19.40
2019-04-22T00:38:38.759Z,18.30
2019-04-22T00:39:44.769Z,17.70
2019-04-22T00:40:41.144Z,17.40
2019-04-22T00:41:44.100Z,17.10
2019-04-22T00:42:40.955Z,18.90
2019-04-22T00:43:45.856Z,19.30
2019-04-22T00:44:43.207Z,21.20
2019-04-22T00:45:40.475Z,18.90
2019-04-22T00:46:42.984Z,18.40
2019-04-22T00:47:46.238Z,19.90
2019-04-22T00:49:31.607Z,18.60
2019-04-22T00:50:06.795Z,18.10
2019-04-22T00:50:44.307Z,20.10
2019-04-22T00:51:44.523Z,20.60
2019-04-22T00:54:43.948Z,20.80
2019-04-22T00:55:40.406Z,20.30
2019-04-22T00:56:35.291Z,17.70
2019-04-22T00:58:38.706Z,18.20
2019-04-22T00:59:43.602Z,16.60
2019-04-22T01:00:37.655Z,19.30
2019-04-22T01:01:41.039Z,17.70
2019-04-22T01:02:41.624Z,18.40
2019-04-22T01:04:47.551Z,14.90
2019-04-22T01:05:51.514Z,17.00
2019-04-22T01:06:48.946Z,14.00
2019-04-22T01:07:51.394Z,17.50
2019-04-22T01:08:53.621Z,16.70
2019-04-22T01:09:52.149Z,16.50
2019-04-22T01:10:45.453Z,16.40
2019-04-22T01:11:44.558Z,15.70
2019-04-22T01:12:44.328Z,16.80
2019-04-22T01:13:46.918Z,15.50
2019-04-22T01:14:49.517Z,16.60
2019-04-22T01:15:47.869Z,14.20
2019-04-22T01:16:49.014Z,14.40
2019-04-22T01:17:46.450Z,15.40
2019-04-22T01:18:48.775Z,15.40
2019-04-22T01:19:50.952Z,15.80
2019-04-22T01:21:43.663Z,14.80
2019-04-22T01:22:46.125Z,15.50
2019-04-22T01:23:46.161Z,14.90
2019-04-22T01:24:45.909Z,13.70
2019-04-22T01:25:41.041Z,11.70
2019-04-22T01:26:40.490Z,14.00
2019-04-22T01:27:39.213Z,12.60
2019-04-22T01:28:34.270Z,13.80
2019-04-22T01:29:36.005Z,13.90
2019-04-22T01:30:32.653Z,14.10
2019-04-22T01:31:28.785Z,13.10
2019-04-22T01:32:27.284Z,14.10
2019-04-22T01:33:32.472Z,15.40
2019-04-22T01:34:37.484Z,13.00
2019-04-22T01:35:37.465Z,14.50
2019-04-22T01:36:44.082Z,13.60
2019-04-22T01:37:41.682Z,14.90
2019-04-22T01:38:45.499Z,13.70
2019-04-22T01:39:50.118Z,16.50
2019-04-22T01:40:53.496Z,18.40
2019-04-22T01:41:55.141Z,14.90
2019-04-22T01:42:42.275Z,21.30
2019-04-22T01:44:00.377Z,19.40
2019-04-22T01:44:45.824Z,19.50
2019-04-22T01:45:49.871Z,20.60
2019-04-22T01:46:50.725Z,20.10
2019-04-22T01:47:49.085Z,20.80
2019-04-22T01:48:50.611Z,24.60
2019-04-22T01:49:45.884Z,22.20
2019-04-22T01:50:43.121Z,21.10
2019-04-22T01:51:59.810Z,22.20
2019-04-22T01:52:56.302Z,23.10
2019-04-22T01:53:50.432Z,22.00
2019-04-22T01:54:52.133Z,22.80
2019-04-22T01:55:55.081Z,21.80
2019-04-22T01:56:47.322Z,25.60
2019-04-22T01:57:47.741Z,21.50
2019-04-22T01:58:38.064Z,21.60
2019-04-22T01:59:41.661Z,22.60
2019-04-22T02:00:51.208Z,21.70
2019-04-22T02:01:50.016Z,22.60
2019-04-22T02:02:49.210Z,22.40
2019-04-22T02:03:51.435Z,19.50
2019-04-22T02:05:04.612Z,20.10
2019-04-22T02:05:44.210Z,19.80
2019-04-22T02:06:48.231Z,19.40
2019-04-22T02:07:49.235Z,21.40
2019-04-22T02:08:53.357Z,20.40
2019-04-22T02:09:53.338Z,19.40
2019-04-22T02:10:57.633Z,20.10
2019-04-22T02:12:08.004Z,20.90
2019-04-22T02:12:46.986Z,18.10
2019-04-22T02:13:49.612Z,20.30
2019-04-22T02:14:44.291Z,17.40
2019-04-22T02:15:52.479Z,18.20
2019-04-22T02:16:50.396Z,17.30
2019-04-22T02:18:11.004Z,16.20
2019-04-22T02:18:56.119Z,17.80
2019-04-22T02:20:05.361Z,17.30
2019-04-22T02:21:01.514Z,16.40
2019-04-22T02:21:48.555Z,17.70
2019-04-22T02:23:00.903Z,16.80
2019-04-22T02:25:49.704Z,17.10
2019-04-22T02:27:00.288Z,17.40
2019-04-22T02:27:46.015Z,16.00
2019-04-22T02:29:01.920Z,17.00
2019-04-22T02:29:49.690Z,15.90
2019-04-22T02:31:16.004Z,16.30
2019-04-22T02:31:51.146Z,17.40
2019-04-22T02:33:11.558Z,15.80
2019-04-22T02:34:56.934Z,18.30
2019-04-22T02:36:08.245Z,19.10
2019-04-22T02:36:54.336Z,16.60
2019-04-22T02:37:45.236Z,17.30
2019-04-22T02:39:57.910Z,15.90
2019-04-22T02:41:50.330Z,15.60
2019-04-22T02:42:51.826Z,16.50
2019-04-22T02:44:04.036Z,16.50
2019-04-22T02:44:56.075Z,15.90
2019-04-22T02:46:10.670Z,14.70
2019-04-22T02:47:06.934Z,15.50
2019-04-22T02:47:49.957Z,15.40
2019-04-22T02:50:54.185Z,13.10
2019-04-22T02:51:49.859Z,14.90
2019-04-22T02:54:55.104Z,12.00
2019-04-22T02:56:05.516Z,11.70
2019-04-22T02:56:53.043Z,13.80
2019-04-22T02:58:03.753Z,12.80
2019-04-22T03:00:01.018Z,11.40
2019-04-22T03:01:01.219Z,11.00
2019-04-22T03:02:03.329Z,11.80
2019-04-22T03:04:03.404Z,10.00
2019-04-22T03:06:15.770Z,9.20
2019-04-22T03:06:45.912Z,10.30
2019-04-22T03:08:10.804Z,10.20
2019-04-22T03:09:10.860Z,9.00
2019-04-22T03:11:14.675Z,9.90
2019-04-22T03:12:14.244Z,9.60
2019-04-22T03:13:01.054Z,7.90
2019-04-22T03:14:07.023Z,8.50
2019-04-22T03:15:06.228Z,7.80
2019-04-22T03:16:07.956Z,9.70
2019-04-22T03:17:03.472Z,9.00
2019-04-22T03:18:20.373Z,8.20
2019-04-22T03:19:17.429Z,7.40
2019-04-22T03:21:08.051Z,8.20
2019-04-22T03:22:00.570Z,7.00
2019-04-22T03:25:32.656Z,6.80
2019-04-22T03:27:04.109Z,7.20
2019-04-22T03:27:54.534Z,7.40
2019-04-22T03:29:04.155Z,7.40
2019-04-22T03:30:33.274Z,7.60
2019-04-22T03:31:06.715Z,9.70
2019-04-22T03:35:34.509Z,6.80
2019-04-22T03:36:05.799Z,6.30
2019-04-22T03:40:13.980Z,8.30
2019-04-22T03:41:03.624Z,8.10
2019-04-22T03:45:10.189Z,7.00
2019-04-22T03:46:06.284Z,6.70
2019-04-22T03:47:10.986Z,6.50
2019-04-22T03:48:04.390Z,6.40
2019-04-22T03:49:24.009Z,7.00
2019-04-22T03:50:16.296Z,6.60
2019-04-22T03:51:09.571Z,6.40
2019-04-22T03:52:18.655Z,6.70
2019-04-22T03:54:10.069Z,6.80
2019-04-22T03:55:15.723Z,6.80
2019-04-22T03:56:13.753Z,7.20
2019-04-22T03:57:57.227Z,7.60
2019-04-22T03:59:07.231Z,6.80
2019-04-22T04:02:02.080Z,7.60
2019-04-22T04:03:09.422Z,7.00
2019-04-22T04:04:09.416Z,7.50
2019-04-22T04:04:59.115Z,6.80
2019-04-22T04:05:59.558Z,9.60
2019-04-22T04:07:15.109Z,7.40
2019-04-22T04:08:05.761Z,7.20
2019-04-22T04:09:08.994Z,7.30
2019-04-22T04:10:12.369Z,7.40
2019-04-22T04:12:03.547Z,7.50
2019-04-22T04:13:10.236Z,6.80
2019-04-22T04:14:09.323Z,7.70
2019-04-22T04:15:55.651Z,7.20
2019-04-22T04:17:06.230Z,7.00
2019-04-22T04:17:59.402Z,7.40
2019-04-22T04:19:07.833Z,7.60
2019-04-22T04:21:18.833Z,7.10
2019-04-22T04:22:08.029Z,6.80
2019-04-22T04:23:07.851Z,6.30
2019-04-22T04:26:01.786Z,6.80
2019-04-22T04:27:35.023Z,6.80
2019-04-22T04:28:24.415Z,6.40
2019-04-22T04:29:15.132Z,7.30
2019-04-22T04:30:14.764Z,6.70
2019-04-22T04:31:00.903Z,6.80
2019-04-22T04:32:18.823Z,6.50
2019-04-22T04:34:04.478Z,6.90
2019-04-22T04:36:03.372Z,7.60
2019-04-22T04:38:12.966Z,6.50
2019-04-22T04:39:00.722Z,7.20
2019-04-22T04:41:08.820Z,6.70
2019-04-22T04:42:58.493Z,6.80
2019-04-22T04:46:07.259Z,6.70
2019-04-22T04:47:11.498Z,6.70
2019-04-22T04:49:16.193Z,7.20
2019-04-22T04:52:06.416Z,7.40
2019-04-22T04:54:14.953Z,7.00
2019-04-22T04:55:09.998Z,7.90
2019-04-22T04:56:08.374Z,8.00
2019-04-22T04:56:58.654Z,7.10
2019-04-22T05:02:06.443Z,7.90
2019-04-22T05:03:00.489Z,7.60
2019-04-22T05:04:04.579Z,7.80
2019-04-22T05:05:12.138Z,7.20
2019-04-22T05:08:21.378Z,7.70
2019-04-22T05:10:22.115Z,7.00
2019-04-22T05:12:25.347Z,6.90
2019-04-22T05:13:10.322Z,7.90
2019-04-22T05:14:05.481Z,7.30
2019-04-22T05:15:09.131Z,6.90
2019-04-22T05:16:20.789Z,7.50
2019-04-22T05:17:03.897Z,7.30
2019-04-22T05:18:58.781Z,8.40
2019-04-22T05:20:07.440Z,7.50
2019-04-22T05:21:09.731Z,7.60
2019-04-22T05:21:57.772Z,7.10
2019-04-22T05:22:51.003Z,7.20
2019-04-22T05:24:03.782Z,7.20
2019-04-22T05:24:58.346Z,6.90
2019-04-22T05:26:00.061Z,8.40
2019-04-22T05:27:02.106Z,8.10
2019-04-22T05:27:59.901Z,6.80
2019-04-22T05:28:58.531Z,8.60
2019-04-22T05:30:21.559Z,7.90
2019-04-22T05:30:57.667Z,6.90
2019-04-22T05:31:56.776Z,7.00
2019-04-22T05:32:58.893Z,6.40
2019-04-22T05:34:02.004Z,7.10
2019-04-22T05:34:53.635Z,7.60
2019-04-22T05:35:53.703Z,8.10
2019-04-22T05:36:55.433Z,6.80
2019-04-22T05:37:57.984Z,7.10
2019-04-22T05:39:58.703Z,7.00
2019-04-22T05:40:58.953Z,7.60
2019-04-22T05:41:54.791Z,7.20
2019-04-22T05:42:56.356Z,8.10
2019-04-22T05:43:59.663Z,6.90
2019-04-22T05:44:54.925Z,8.40
2019-04-22T05:45:51.534Z,8.40
2019-04-22T05:46:52.765Z,7.00
2019-04-22T05:47:57.572Z,6.80
2019-04-22T05:49:15.105Z,6.90
2019-04-22T05:50:00.072Z,7.20
2019-04-22T05:50:56.460Z,6.90
2019-04-22T05:51:54.926Z,6.90
2019-04-22T05:52:56.649Z,8.70
2019-04-22T05:53:59.527Z,7.40
2019-04-22T05:54:54.917Z,6.80
2019-04-22T05:55:56.637Z,7.00
2019-04-22T05:56:42.910Z,6.90
2019-04-22T05:57:57.736Z,6.90
2019-04-22T05:58:58.804Z,6.30
2019-04-22T06:00:02.532Z,6.70
2019-04-22T06:01:19.820Z,6.50
2019-04-22T06:01:59.712Z,6.20
2019-04-22T06:03:59.239Z,8.60
2019-04-22T06:04:58.270Z,6.30
2019-04-22T06:05:55.257Z,7.10
2019-04-22T06:06:54.431Z,6.10
2019-04-22T06:07:52.734Z,6.60
2019-04-22T06:08:59.172Z,8.20
2019-04-22T06:10:02.334Z,7.60
2019-04-22T06:10:59.202Z,8.60
2019-04-22T06:11:51.572Z,6.40
2019-04-22T06:12:55.064Z,7.40
2019-04-22T06:13:51.701Z,6.00
2019-04-22T06:14:54.060Z,6.60
2019-04-22T06:15:52.997Z,5.90
2019-04-22T06:17:02.118Z,6.00
2019-04-22T06:18:02.220Z,6.20
2019-04-22T06:19:01.648Z,6.40
2019-04-22T06:19:50.485Z,6.30
2019-04-22T06:23:00.305Z,7.80
2019-04-22T06:24:04.975Z,7.20
2019-04-22T06:24:57.778Z,6.20
2019-04-22T06:27:02.826Z,6.70
2019-04-22T06:27:53.912Z,7.20
2019-04-22T06:28:54.718Z,5.70
2019-04-22T06:29:55.407Z,5.70
2019-04-22T06:30:57.528Z,6.20
2019-04-22T06:32:23.209Z,6.30
2019-04-22T06:32:53.758Z,6.10
2019-04-22T06:34:02.284Z,5.90
2019-04-22T06:35:00.428Z,7.10
2019-04-22T06:35:56.376Z,10.00
2019-04-22T06:37:03.589Z,5.80
2019-04-22T06:38:19.186Z,6.40
2019-04-22T06:38:53.283Z,7.30
2019-04-22T06:39:53.732Z,5.70
2019-04-22T06:41:02.789Z,6.90
2019-04-22T06:41:56.206Z,5.70
2019-04-22T06:42:57.922Z,5.60
2019-04-22T06:43:58.394Z,7.10
2019-04-22T06:45:02.817Z,5.40
2019-04-22T06:45:51.803Z,5.60
2019-04-22T06:46:53.250Z,5.60
2019-04-22T06:48:12.684Z,6.50
2019-04-22T06:48:55.169Z,5.80
2019-04-22T06:49:55.520Z,5.90
2019-04-22T06:50:52.969Z,5.50
2019-04-22T06:51:55.791Z,5.50
2019-04-22T06:52:58.616Z,5.80
2019-04-22T06:53:53.967Z,5.70
2019-04-22T06:54:54.690Z,5.60
2019-04-22T06:55:51.694Z,5.10
2019-04-22T06:56:58.112Z,5.90
2019-04-22T06:57:53.310Z,7.30
2019-04-22T06:58:52.243Z,5.50
2019-04-22T06:59:58.743Z,5.80
2019-04-22T07:00:54.707Z,9.30
2019-04-22T07:01:59.313Z,5.50
2019-04-22T07:03:53.923Z,6.50
2019-04-22T07:04:58.395Z,6.10
2019-04-22T07:05:52.337Z,5.10
2019-04-22T07:07:02.199Z,5.20
2019-04-22T07:08:02.650Z,5.10
2019-04-22T07:09:17.919Z,5.90
2019-04-22T07:09:54.304Z,5.10
2019-04-22T07:10:50.742Z,6.70
2019-04-22T07:11:53.080Z,6.00
2019-04-22T07:12:54.319Z,5.20
2019-04-22T07:14:00.109Z,5.10
2019-04-22T07:14:57.709Z,5.90
2019-04-22T07:16:00.420Z,5.60
2019-04-22T07:17:07.377Z,7.10
2019-04-22T07:17:58.175Z,6.50
2019-04-22T07:18:55.181Z,6.10
2019-04-22T07:19:48.726Z,5.80
2019-04-22T07:20:56.382Z,6.50
2019-04-22T07:21:57.227Z,6.80
2019-04-22T07:22:53.189Z,6.60
2019-04-22T07:24:03.012Z,6.20
2019-04-22T07:24:56.199Z,6.20
2019-04-22T07:25:53.385Z,5.40
2019-04-22T07:26:51.139Z,4.60
2019-04-22T07:27:52.336Z,5.10
2019-04-22T07:28:52.867Z,5.70
2019-04-22T07:30:52.821Z,7.40
2019-04-22T07:31:54.496Z,6.00
2019-04-22T07:33:51.666Z,5.60
2019-04-22T07:34:52.938Z,5.60
2019-04-22T07:36:12.554Z,5.20
2019-04-22T07:37:00.413Z,5.60
2019-04-22T07:37:48.316Z,5.30
2019-04-22T07:38:50.452Z,5.50
2019-04-22T07:39:54.971Z,6.30
2019-04-22T07:40:55.471Z,7.10
2019-04-22T07:41:51.370Z,5.60
2019-04-22T07:42:57.501Z,5.50
2019-04-22T07:44:10.275Z,10.70
2019-04-22T07:44:54.800Z,5.80
2019-04-22T07:45:53.425Z,5.20
2019-04-22T07:46:56.636Z,6.80
2019-04-22T07:48:51.902Z,6.00
2019-04-22T07:49:51.042Z,6.50
2019-04-22T07:51:08.760Z,5.10
2019-04-22T07:51:49.618Z,5.30
2019-04-22T07:52:52.190Z,5.40
2019-04-22T07:53:57.495Z,4.90
2019-04-22T07:54:53.072Z,5.70
2019-04-22T07:55:51.865Z,5.30
2019-04-22T07:57:02.679Z,4.90
2019-04-22T07:57:52.036Z,6.20
2019-04-22T07:58:55.626Z,5.20
2019-04-22T07:59:58.979Z,7.40
2019-04-22T08:00:57.769Z,6.80
2019-04-22T08:01:48.874Z,5.00
2019-04-22T08:04:00.165Z,4.70
2019-04-22T08:05:05.424Z,5.20
2019-04-22T08:06:07.920Z,6.00
2019-04-22T08:06:57.528Z,5.10
2019-04-22T08:07:59.486Z,5.20
2019-04-22T08:08:58.375Z,5.20
2019-04-22T08:10:04.548Z,5.00
2019-04-22T08:10:59.332Z,5.20
2019-04-22T08:11:53.776Z,5.20
2019-04-22T08:12:55.023Z,5.60
2019-04-22T08:13:55.264Z,6.20
2019-04-22T08:14:52.060Z,5.80
2019-04-22T08:15:55.327Z,6.60
2019-04-22T08:17:00.987Z,7.10
2019-04-22T08:19:00.718Z,5.10
2019-04-22T08:19:55.985Z,6.30
2019-04-22T08:20:56.593Z,5.00
2019-04-22T08:21:53.232Z,8.90
2019-04-22T08:22:57.395Z,6.30
2019-04-22T08:23:57.562Z,5.40
2019-04-22T08:24:54.273Z,4.80
2019-04-22T08:26:06.006Z,5.10
2019-04-22T08:26:53.283Z,5.10
2019-04-22T08:27:57.040Z,5.20
2019-04-22T08:29:03.858Z,5.00
2019-04-22T08:29:59.803Z,7.10
2019-04-22T08:30:54.399Z,5.10
2019-04-22T08:31:55.229Z,5.10
2019-04-22T08:32:53.098Z,4.40
2019-04-22T08:34:00.346Z,6.00
2019-04-22T08:34:47.227Z,5.00
2019-04-22T08:37:12.365Z,5.20
2019-04-22T08:38:31.396Z,4.80
2019-04-22T08:39:48.558Z,7.90
2019-04-22T08:40:56.146Z,5.80
2019-04-22T08:41:43.570Z,5.40
2019-04-22T08:42:58.371Z,5.60
2019-04-22T08:43:57.485Z,6.10
2019-04-22T08:45:06.226Z,5.70
2019-04-22T08:45:57.184Z,4.80
2019-04-22T08:46:57.922Z,5.60
2019-04-22T08:47:51.183Z,5.40
2019-04-22T08:48:57.753Z,6.10
2019-04-22T08:50:04.647Z,5.40
2019-04-22T08:50:58.720Z,5.50
2019-04-22T08:51:50.702Z,4.90
2019-04-22T08:52:57.611Z,5.70
2019-04-22T08:54:57.422Z,6.70
2019-04-22T08:55:57.881Z,5.70
2019-04-22T08:56:52.399Z,5.70
2019-04-22T08:58:11.258Z,5.70
2019-04-22T08:58:57.260Z,5.10
2019-04-22T08:59:59.031Z,5.00
2019-04-22T09:00:57.009Z,4.90
2019-04-22T09:01:52.899Z,5.30
2019-04-22T09:02:55.450Z,5.70
2019-04-22T09:03:52.680Z,5.60
2019-04-22T09:06:15.281Z,6.20
2019-04-22T09:07:07.727Z,4.80
2019-04-22T09:08:05.621Z,5.20
2019-04-22T09:08:55.242Z,6.80
2019-04-22T09:09:54.087Z,5.60
2019-04-22T09:10:51.930Z,5.40
2019-04-22T09:11:54.661Z,4.90
2019-04-22T09:13:55.116Z,5.60
2019-04-22T09:15:02.487Z,5.80
2019-04-22T09:15:49.585Z,5.40
2019-04-22T09:16:52.693Z,6.80
2019-04-22T09:17:55.989Z,6.10
2019-04-22T09:18:53.923Z,5.10
2019-04-22T09:19:54.573Z,5.20
2019-04-22T09:21:02.147Z,6.90
2019-04-22T09:21:57.517Z,4.70
2019-04-22T09:22:56.789Z,5.50
2019-04-22T09:24:53.957Z,6.60
2019-04-22T09:25:51.109Z,6.60
2019-04-22T09:27:15.789Z,8.20
2019-04-22T09:27:51.296Z,5.30
2019-04-22T09:29:50.097Z,6.50
2019-04-22T09:30:55.559Z,7.30
2019-04-22T09:31:56.658Z,5.30
2019-04-22T09:32:59.161Z,6.10
2019-04-22T09:33:47.613Z,6.80
2019-04-22T09:34:51.326Z,4.80
2019-04-22T09:36:02.955Z,5.30
2019-04-22T09:36:58.192Z,5.30
2019-04-22T09:38:08.900Z,6.60
2019-04-22T09:38:48.679Z,5.10
2019-04-22T09:39:59.654Z,5.80
2019-04-22T09:40:52.481Z,4.90
2019-04-22T09:41:51.390Z,6.70
2019-04-22T09:43:00.162Z,7.90
2019-04-22T09:43:56.629Z,6.20
2019-04-22T09:45:06.166Z,4.80
2019-04-22T09:45:53.940Z,5.70
2019-04-22T09:46:53.721Z,4.60
2019-04-22T09:47:58.299Z,4.80
2019-04-22T09:48:59.232Z,5.90
2019-04-22T09:49:54.925Z,6.70
2019-04-22T09:50:51.933Z,4.70
2019-04-22T09:51:55.440Z,4.70
2019-04-22T09:52:54.885Z,5.90
2019-04-22T09:54:04.081Z,5.70
2019-04-22T09:54:59.641Z,4.80
2019-04-22T09:55:53.157Z,4.70
2019-04-22T09:56:53.110Z,5.00
2019-04-22T09:57:53.071Z,4.60
2019-04-22T09:59:05.559Z,5.90
2019-04-22T09:59:57.768Z,5.40
2019-04-22T10:00:55.876Z,5.10
2019-04-22T10:02:08.116Z,5.60
2019-04-22T10:02:55.918Z,6.00
2019-04-22T10:03:56.167Z,7.30
2019-04-22T10:04:55.472Z,7.40
2019-04-22T10:06:07.401Z,5.90
2019-04-22T10:06:54.716Z,6.90
2019-04-22T10:07:54.380Z,7.20
2019-04-22T10:10:01.467Z,4.90
2019-04-22T10:10:56.594Z,5.40
2019-04-22T10:11:52.382Z,4.90
2019-04-22T10:12:46.719Z,6.40
2019-04-22T10:13:53.724Z,5.20
2019-04-22T10:14:51.098Z,7.50
2019-04-22T10:15:58.930Z,6.10
2019-04-22T10:16:50.713Z,5.00
2019-04-22T10:17:54.928Z,16.50
2019-04-22T10:18:52.397Z,6.00
2019-04-22T10:20:05.643Z,4.90
2019-04-22T10:20:57.328Z,5.90
2019-04-22T10:22:57.956Z,6.30
2019-04-22T10:23:53.323Z,5.00
2019-04-22T10:24:52.035Z,6.10
2019-04-22T10:25:52.614Z,6.60
2019-04-22T10:26:50.610Z,5.90
2019-04-22T10:27:56.827Z,5.00
2019-04-22T10:28:55.303Z,6.50
2019-04-22T10:29:54.284Z,7.20
2019-04-22T10:30:52.222Z,5.10
2019-04-22T10:32:06.701Z,4.80
2019-04-22T10:32:47.925Z,7.00
2019-04-22T10:33:48.235Z,5.30
2019-04-22T10:34:34.757Z,5.00
2019-04-22T10:35:28.733Z,5.40
2019-04-22T10:36:27.643Z,4.80
2019-04-22T10:37:26.224Z,6.30
2019-04-22T10:38:26.537Z,5.80
2019-04-22T10:39:36.813Z,5.20
2019-04-22T10:40:26.179Z,5.80
2019-04-22T10:41:26.400Z,5.80
2019-04-22T10:42:27.128Z,5.10
2019-04-22T10:43:27.356Z,7.70
2019-04-22T10:44:27.081Z,6.40
2019-04-22T10:45:26.143Z,5.60
2019-04-22T10:46:26.399Z,7.80
2019-04-22T10:47:26.103Z,4.80
2019-04-22T10:48:26.271Z,7.10
2019-04-22T10:49:26.637Z,4.80
2019-04-22T10:50:26.078Z,6.60
2019-04-22T10:51:26.540Z,4.60
2019-04-22T10:52:27.555Z,5.70
2019-04-22T10:53:26.073Z,5.60
2019-04-22T10:54:27.260Z,7.20
2019-04-22T10:55:27.391Z,6.50
2019-04-22T10:56:27.268Z,7.00
2019-04-22T10:57:25.996Z,5.30
2019-04-22T10:58:26.669Z,6.10
2019-04-22T10:59:26.920Z,5.50
2019-04-22T11:00:27.234Z,4.80
2019-04-22T11:01:25.985Z,6.40
2019-04-22T11:02:25.956Z,6.20
2019-04-22T11:03:26.535Z,6.50
2019-04-22T11:04:26.118Z,5.80
2019-04-22T11:05:26.192Z,6.20
2019-04-22T11:06:27.473Z,5.40
2019-04-22T11:07:36.325Z,5.20
2019-04-22T11:08:41.497Z,6.50
2019-04-22T11:09:27.056Z,5.30
2019-04-22T11:10:41.201Z,7.30
2019-04-22T11:11:34.774Z,5.00
2019-04-22T11:12:28.849Z,5.10
2019-04-22T11:13:26.148Z,6.20
2019-04-22T11:14:26.568Z,5.90
2019-04-22T11:15:26.578Z,6.00
2019-04-22T11:16:25.800Z,6.20
2019-04-22T11:17:26.576Z,6.10
2019-04-22T11:18:25.774Z,6.10
2019-04-22T11:19:25.777Z,6.20
2019-04-22T11:20:26.058Z,6.00
2019-04-22T11:21:25.737Z,6.00
2019-04-22T11:22:30.035Z,6.40
2019-04-22T11:23:27.033Z,5.90
2019-04-22T11:24:26.677Z,6.60
2019-04-22T11:25:25.705Z,7.30
2019-04-22T11:26:25.989Z,5.80
2019-04-22T11:27:25.717Z,5.20
2019-04-22T11:28:25.696Z,5.50
2019-04-22T11:29:25.716Z,5.60
2019-04-22T11:30:27.957Z,5.80
2019-04-22T11:31:26.442Z,5.80
2019-04-22T11:32:26.650Z,5.30
2019-04-22T11:33:26.732Z,4.90
2019-04-22T11:34:26.932Z,6.70
2019-04-22T11:35:25.826Z,7.60
2019-04-22T11:36:28.645Z,6.50
2019-04-22T11:37:25.563Z,5.80
2019-04-22T11:38:26.762Z,8.30
2019-04-22T11:39:26.020Z,7.40
2019-04-22T11:40:33.827Z,5.80
2019-04-22T11:41:25.660Z,5.60
2019-04-22T11:42:25.938Z,5.20
2019-04-22T11:43:26.176Z,5.30
2019-04-22T11:44:25.496Z,5.00
2019-04-22T11:45:26.941Z,5.80
2019-04-22T11:46:25.469Z,4.80
2019-04-22T11:47:25.687Z,5.40
2019-04-22T11:48:26.921Z,6.80
2019-04-22T11:49:25.864Z,4.50
2019-04-22T11:50:26.140Z,5.00
2019-04-22T11:51:25.421Z,5.00
2019-04-22T11:52:26.763Z,6.50
2019-04-22T11:53:26.916Z,6.10
2019-04-22T11:54:25.401Z,5.00
2019-04-22T11:55:26.695Z,5.30
2019-04-22T11:56:25.350Z,4.70
2019-04-22T11:57:25.470Z,4.50
2019-04-22T11:58:26.576Z,4.80
2019-04-22T11:59:26.716Z,3.90
2019-04-22T12:00:25.329Z,4.90
2019-04-22T12:01:26.648Z,4.30
2019-04-22T12:02:25.747Z,6.30
2019-04-22T12:03:25.452Z,4.00
2019-04-22T12:04:25.729Z,4.30
2019-04-22T12:05:25.943Z,6.60
2019-04-22T12:06:26.259Z,3.80
2019-04-22T12:07:26.638Z,7.10
2019-04-22T12:08:25.250Z,3.90
2019-04-22T12:09:25.702Z,4.70
2019-04-22T12:10:33.285Z,5.00
2019-04-22T12:11:26.277Z,4.30
2019-04-22T12:12:25.584Z,10.20
2019-04-22T12:13:26.203Z,3.70
2019-04-22T12:14:25.661Z,5.10
2019-04-22T12:15:26.696Z,4.10
2019-04-22T12:16:25.520Z,3.80
2019-04-22T12:17:26.313Z,4.10
2019-04-22T12:18:25.122Z,3.80
2019-04-22T12:19:25.304Z,5.20
2019-04-22T12:20:25.533Z,4.00
2019-04-22T12:21:25.090Z,3.20
2019-04-22T12:22:25.201Z,3.60
2019-04-22T12:23:25.273Z,3.90
2019-04-22T12:24:25.203Z,3.10
2019-04-22T12:25:34.709Z,3.90
2019-04-22T12:26:25.631Z,3.10
2019-04-22T12:27:26.776Z,4.60
2019-04-22T12:28:25.007Z,3.20
2019-04-22T12:29:25.007Z,3.70
2019-04-22T12:30:25.610Z,3.60
2019-04-22T12:31:24.980Z,4.10
2019-04-22T12:32:25.389Z,3.50
2019-04-22T12:33:25.321Z,3.10
2019-04-22T12:34:25.740Z,3.30
2019-04-22T12:35:26.284Z,3.60
2019-04-22T12:36:26.473Z,3.30
2019-04-22T12:37:33.000Z,4.20
2019-04-22T12:38:24.912Z,2.80
2019-04-22T12:39:25.414Z,3.90
2019-04-22T12:40:33.848Z,2.80
2019-04-22T12:41:25.862Z,2.90
2019-04-22T12:42:24.856Z,5.10
2019-04-22T12:43:26.423Z,3.20
2019-04-22T12:44:26.525Z,3.60
2019-04-22T12:45:24.845Z,3.10
2019-04-22T12:46:26.141Z,3.20
2019-04-22T12:47:26.161Z,3.10
2019-04-22T12:48:25.440Z,3.20
2019-04-22T12:49:26.040Z,3.90
2019-04-22T12:50:29.893Z,4.00
2019-04-22T12:51:25.039Z,3.00
2019-04-22T12:52:35.217Z,2.50
2019-04-22T12:53:27.602Z,3.60
2019-04-22T12:54:24.743Z,3.90
2019-04-22T12:55:26.012Z,2.70
2019-04-22T12:56:25.846Z,2.60
2019-04-22T12:57:24.937Z,2.90
2019-04-22T12:58:25.562Z,3.30
2019-04-22T12:59:25.518Z,4.30
2019-04-22T13:00:24.756Z,2.50
2019-04-22T13:01:24.769Z,3.20
2019-04-22T13:02:25.138Z,2.90
2019-04-22T13:03:24.641Z,3.60
2019-04-22T13:04:25.261Z,3.50
2019-04-22T13:05:25.048Z,2.20
2019-04-22T13:06:25.815Z,3.40
2019-04-22T13:07:25.927Z,3.60
2019-04-22T13:08:25.549Z,3.00
2019-04-22T13:10:45.431Z,7.60
2019-04-22T13:11:36.511Z,4.00
2019-04-22T13:12:35.032Z,2.70
2019-04-22T13:13:34.723Z,3.90
2019-04-22T13:14:34.979Z,2.90
2019-04-22T13:15:35.115Z,2.10
2019-04-22T13:16:35.281Z,2.20
2019-04-22T13:17:35.744Z,2.80
2019-04-22T13:18:43.399Z,2.10
2019-04-22T13:19:36.008Z,2.80
2019-04-22T13:20:34.704Z,2.60
2019-04-22T13:21:34.666Z,2.00
2019-04-22T13:22:34.981Z,2.10
2019-04-22T13:23:34.616Z,2.80
2019-04-22T13:24:36.079Z,2.20
2019-04-22T13:25:34.782Z,3.80
2019-04-22T13:26:35.944Z,3.10
2019-04-22T13:27:35.122Z,3.80
2019-04-22T13:28:34.708Z,2.40
2019-04-22T13:29:34.988Z,2.80
2019-04-22T13:30:34.754Z,3.10
2019-04-22T13:31:34.933Z,4.20
2019-04-22T13:32:34.761Z,2.30
2019-04-22T13:33:34.750Z,3.10
2019-04-22T13:34:40.229Z,3.60
2019-04-22T13:35:36.105Z,2.30
2019-04-22T13:36:34.715Z,2.70
2019-04-22T13:37:34.989Z,2.20
2019-04-22T13:38:35.387Z,3.00
2019-04-22T13:39:34.814Z,1.90
2019-04-22T13:40:34.919Z,2.30
2019-04-22T13:41:42.997Z,2.40
2019-04-22T13:42:35.450Z,2.90
2019-04-22T13:43:34.852Z,4.30
2019-04-22T13:44:35.585Z,2.80
2019-04-22T13:45:34.380Z,3.10
2019-04-22T13:46:35.607Z,2.30
2019-04-22T13:47:50.297Z,2.20
2019-04-22T13:48:59.095Z,3.80
2019-04-22T13:50:11.748Z,3.60
2019-04-22T13:51:03.751Z,3.20
2019-04-22T13:52:00.897Z,3.10
2019-04-22T13:53:10.348Z,3.80
2019-04-22T13:55:00.129Z,2.50
2019-04-22T13:55:59.194Z,3.10
2019-04-22T13:56:51.893Z,3.20
2019-04-22T13:57:53.959Z,2.20
2019-04-22T13:58:48.509Z,6.10
2019-04-22T13:59:41.097Z,2.10
2019-04-22T14:00:34.594Z,2.80
2019-04-22T14:01:34.748Z,3.20
2019-04-22T14:02:34.739Z,2.90
2019-04-22T14:03:35.784Z,3.60
2019-04-22T14:04:34.671Z,2.40
2019-04-22T14:05:34.957Z,3.80
2019-04-22T14:06:34.725Z,2.50
2019-04-22T14:07:34.778Z,4.90
2019-04-22T14:08:35.336Z,4.30
2019-04-22T14:09:34.110Z,4.00
2019-04-22T14:10:34.490Z,3.30
2019-04-22T14:11:43.362Z,8.50
2019-04-22T14:12:34.935Z,6.70
2019-04-22T14:13:34.264Z,3.40
2019-04-22T14:14:34.059Z,4.70
2019-04-22T14:15:34.053Z,3.10
2019-04-22T14:16:35.255Z,3.50
2019-04-22T14:17:34.856Z,4.60
2019-04-22T14:18:34.909Z,2.10
2019-04-22T14:19:34.085Z,2.50
2019-04-22T14:20:34.424Z,3.30
2019-04-22T14:21:34.827Z,2.80
2019-04-22T14:22:34.670Z,2.60
2019-04-22T14:23:34.831Z,1.80
2019-04-22T14:24:34.459Z,2.20
2019-04-22T14:25:34.592Z,2.20
2019-04-22T14:26:44.067Z,3.60
2019-04-22T14:27:44.388Z,3.30
2019-04-22T14:28:35.452Z,2.80
2019-04-22T14:29:33.902Z,2.80
2019-04-22T14:30:34.697Z,3.20
2019-04-22T14:31:33.890Z,3.40
2019-04-22T14:32:34.423Z,3.70
2019-04-22T14:33:34.525Z,2.80
2019-04-22T14:34:34.254Z,2.80
2019-04-22T14:35:35.381Z,3.10
2019-04-22T14:36:35.250Z,2.90